Latest Weather Observations for Cessnock Airport

IDN60801

Issued at 11:35 am EDT Saturday 1 November 2014 (issued every 30 minutes, with the page automatically refreshed every 10 minutes)

About weather observations | Map of weather stations | Latest weather observations for NSW | Other Formats
Station Details ID: 061260 Name: CESSNOCK AIRPORT AWS Lat: -32.79 Lon: 151.34 Height: 61.0 m
Data from the previous 72 hours. | See also: Recent months at Cessnock Airport
Date/Time
EDT
Temp
°C
App
Temp
°C
Dew
Point
Rel
Hum
%
Delta-T
°C
Wind Press
QNH
hPa
Press
MSL
hPa
Rain
since 9 am
mm
Dir
 
Spd
km/h
Gust
km/h
Spd
kts
Gust
kts
01/11:30am 33.3 28.0 11.2 26 13.0 NW 30 50 16 27 1002.7 1002.5 0.0
01/11:00am 31.8 26.6 11.6 29 11.9 NNW 30 52 16 28 1003.4 1003.2 0.0
01/10:33am 31.8 27.0 11.6 29 11.8 NW 28 54 15 29 1003.9 1003.8 0.0
01/10:30am 31.2 26.8 11.6 30 11.5 NW 26 54 14 29 1004.0 1003.9 0.0
01/10:00am 30.1 25.9 11.1 31 11.0 NNW 24 46 13 25 1004.5 1004.4 0.0
01/09:30am 28.9 25.3 11.9 35 9.9 NNW 22 41 12 22 1004.9 1004.8 0.0
01/09:00am 27.5 23.7 12.3 39 8.9 NNW 24 44 13 24 1005.5 1005.4 -
01/08:30am 26.9 23.9 12.5 40 8.4 NW 20 32 11 17 1006.0 1005.8 -
01/08:00am 26.1 22.5 12.9 44 7.7 NNW 24 35 13 19 1006.1 1005.9 -
01/07:30am 24.8 22.5 13.0 47 6.9 NNW 17 26 9 14 1006.1 1005.9 -
01/07:00am 23.7 22.4 13.6 53 5.9 NNW 13 26 7 14 1006.5 1006.3 -
01/06:30am 21.0 20.5 13.9 64 4.1 NNE 9 11 5 6 1006.7 1006.5 -
01/06:00am 22.3 21.2 13.1 56 5.3 N 11 15 6 8 1006.5 1006.3 -
01/05:30am 22.5 21.5 13.3 56 5.3 NW 11 13 6 7 1006.5 1006.3 -
01/05:00am 22.8 21.9 13.6 56 5.4 NW 11 15 6 8 1006.1 1005.9 -
01/04:30am 22.8 22.1 13.3 55 5.5 NNW 9 13 5 7 1006.3 1006.1 -
01/04:00am 22.6 22.3 14.4 60 4.8 N 9 11 5 6 1006.5 1006.3 -
01/03:30am 23.4 22.4 13.3 53 5.9 N 11 17 6 9 1006.9 1006.7 -
01/03:00am 24.3 22.6 12.3 47 6.9 NW 13 20 7 11 1006.9 1006.7 -
01/02:00am 25.6 22.2 11.4 41 8.1 NW 20 35 11 19 1006.6 1006.4 0.0
01/01:30am 25.6 22.9 11.7 42 7.9 NW 17 28 9 15 1007.2 1007.0 0.0
01/01:00am 26.0 22.5 11.0 39 8.5 N 20 32 11 17 1007.2 1007.0 0.0
01/12:30am 28.1 24.3 8.9 30 10.6 NW 19 32 10 17 1006.8 1006.6 0.0
01/12:00am 27.7 23.2 10.0 33 9.9 NW 24 41 13 22 1007.2 1007.0 0.0
 
Date/Time
EDT
Temp
°C
App
Temp
°C
Dew
Point
Rel
Hum
%
Delta-T
°C
Wind Press
QNH
hPa
Press
MSL
hPa
Rain
since 9 am
mm
Dir
 
Spd
km/h
Gust
km/h
Spd
kts
Gust
kts
31/11:30pm 27.8 20.8 10.1 33 10.0 NW 37 56 20 30 1008.1 1007.9 0.0
31/11:26pm 27.8 20.5 10.1 33 9.9 NW 39 50 21 27 1008.0 1007.8 0.0
31/11:10pm 25.2 22.0 11.4 42 7.8 NNW 19 32 10 17 1008.4 1008.2 0.0
31/11:00pm 20.0 18.4 11.7 59 4.6 W 11 20 6 11 1008.4 1008.2 0.0
31/10:30pm 19.7 18.5 10.4 55 5.0 SW 7 9 4 5 1007.0 1006.8 0.0
31/10:00pm 20.1 18.0 9.9 52 5.5 WSW 11 11 6 6 1007.0 1006.8 0.0
31/09:30pm 21.6 19.0 9.5 46 6.5 SW 13 15 7 8 1007.1 1006.9 0.0
31/09:00pm 23.2 21.3 9.2 41 7.6 SSW 9 11 5 6 1007.0 1006.8 0.0
31/08:30pm 24.9 22.5 8.8 36 8.7 S 11 13 6 7 1006.9 1006.7 0.0
31/08:00pm 25.4 23.0 7.1 31 9.7 S 9 13 5 7 1006.7 1006.5 0.0
31/07:30pm 27.4 25.4 7.3 28 10.7 S 7 11 4 6 1006.5 1006.3 0.0
31/07:00pm 29.5 27.2 7.4 25 12.0 ESE 9 13 5 7 1006.3 1006.1 0.0
31/06:30pm 30.6 26.0 5.8 21 13.2 E 19 28 10 15 1006.1 1005.9 0.0
31/06:00pm 32.1 27.5 6.3 20 13.9 E 20 33 11 18 1006.2 1006.0 0.0
31/05:30pm 32.1 26.1 3.1 16 14.8 E 24 33 13 18 1006.1 1005.9 0.0
31/05:00pm 33.1 27.4 3.0 15 15.5 E 22 26 12 14 1006.1 1005.9 0.0
31/04:30pm 35.5 29.6 -0.8 10 17.8 N 20 32 11 17 1006.0 1005.8 0.0
31/04:00pm 36.9 31.4 0.3 10 18.5 N 19 28 10 15 1006.4 1006.2 0.0
31/03:30pm 36.0 30.0 -1.8 9 18.3 NNW 20 35 11 19 1006.9 1006.7 0.0
31/03:00pm 35.7 29.8 -0.6 10 17.9 WNW 20 35 11 19 1007.3 1007.1 0.0
31/02:30pm 36.3 31.3 1.2 11 17.9 NW 17 26 9 14 1007.9 1007.7 0.0
31/02:00pm 35.8 29.4 0.8 11 17.7 WNW 24 43 13 23 1008.6 1008.4 0.0
31/01:30pm 35.0 29.8 0.2 11 17.3 NW 17 24 9 13 1009.4 1009.3 0.0
31/01:00pm 34.8 30.7 2.3 13 16.7 N 13 26 7 14 1010.0 1009.9 0.0
31/12:30pm 33.7 30.2 3.5 15 15.7 N 11 19 6 10 1010.7 1010.6 0.0
31/12:00pm 32.5 29.7 5.1 18 14.5 N 9 19 5 10 1011.5 1011.4 0.0
31/11:30am 31.3 29.4 7.7 23 13.0 N 7 13 4 7 1012.0 1011.9 0.0
31/11:00am 29.4 27.7 8.5 27 11.5 N 7 13 4 7 1012.4 1012.3 0.0
31/10:30am 28.4 26.4 8.7 29 10.8 N 9 17 5 9 1012.9 1012.8 0.0
31/10:00am 26.3 25.2 10.5 37 8.9 NNW 7 11 4 6 1013.0 1012.9 0.0
31/09:30am 24.7 24.0 12.0 45 7.3 NNE 7 11 4 6 1013.0 1012.9 0.0
31/09:00am 22.4 21.8 11.8 51 6.0 N 6 9 3 5 1013.2 1013.1 0.0
31/08:30am 20.1 19.5 11.8 59 4.6 NW 6 9 3 5 1013.1 1013.0 0.0
31/08:00am 17.7 18.2 11.7 68 3.3 CALM 0 4 0 2 1013.3 1013.2 0.0
31/07:30am 14.8 16.0 13.8 94 0.6 CALM 0 0 0 0 1013.3 1013.2 0.0
31/07:00am 12.1 12.0 12.1 100 0.0 WSW 4 7 2 4 1013.4 1013.3 0.0
31/06:30am 9.6 9.5 9.6 100 0.0 CALM 0 0 0 0 1013.3 1013.2 0.0
31/06:00am 8.7 8.4 8.7 100 0.0 CALM 0 0 0 0 1013.1 1013.0 0.0
31/05:30am 9.2 9.0 9.2 100 0.0 CALM 0 0 0 0 1012.9 1012.8 0.0
31/05:00am 9.1 8.9 9.1 100 0.0 CALM 0 0 0 0 1012.7 1012.6 0.0
31/04:30am 10.0 10.1 10.0 100 0.0 CALM 0 0 0 0 1012.5 1012.4 0.0
31/04:00am 9.5 9.3 9.2 98 0.1 CALM 0 0 0 0 1012.4 1012.3 0.0
31/03:30am 10.8 11.0 10.6 99 0.1 CALM 0 0 0 0 1012.4 1012.3 0.0
31/03:00am 10.6 10.7 10.1 97 0.3 CALM 0 0 0 0 1012.4 1012.3 0.0
31/02:30am 11.5 11.8 11.0 97 0.3 CALM 0 0 0 0 1012.4 1012.3 0.0
31/02:00am 11.7 11.2 10.8 94 0.5 W 4 6 2 3 1012.6 1012.5 0.0
31/01:30am 11.4 11.0 8.4 82 1.5 CALM 0 2 0 1 1012.8 1012.7 0.0
31/01:00am 12.3 12.1 9.1 81 1.6 CALM 0 0 0 0 1013.1 1013.0 0.0
31/12:30am 13.2 12.8 9.6 79 1.8 SW 2 6 1 3 1013.3 1013.2 0.0
31/12:00am 13.0 11.4 8.7 75 2.2 SW 7 9 4 5 1013.3 1013.2 0.0
 
Date/Time
EDT
Temp
°C
App
Temp
°C
Dew
Point
Rel
Hum
%
Delta-T
°C
Wind Press
QNH
hPa
Press
MSL
hPa
Rain
since 9 am
mm
Dir
 
Spd
km/h
Gust
km/h
Spd
kts
Gust
kts
30/11:30pm 14.5 13.6 9.3 71 2.7 SW 4 6 2 3 1013.4 1013.3 0.0
30/11:00pm 15.6 14.3 9.3 66 3.3 SSW 6 9 3 5 1013.5 1013.4 0.0
30/10:30pm 15.5 14.1 9.6 68 3.1 SW 7 13 4 7 1013.4 1013.3 0.0
30/10:00pm 16.8 16.3 10.6 67 3.3 SSW 4 7 2 4 1013.2 1013.1 0.0
30/09:30pm 17.7 16.9 11.0 65 3.6 SSW 6 11 3 6 1013.2 1013.1 0.0
30/09:00pm 18.6 17.2 12.1 66 3.6 SSW 11 13 6 7 1012.9 1012.8 0.0
30/08:30pm 20.0 18.9 13.2 65 3.9 SSW 11 15 6 8 1012.6 1012.5 0.0
30/08:00pm 20.8 19.9 12.5 59 4.7 SSW 9 11 5 6 1012.3 1012.2 0.0
30/07:30pm 21.4 20.0 12.3 56 5.1 SSE 11 15 6 8 1012.0 1011.9 0.0
30/07:00pm 23.6 21.8 12.0 48 6.6 SE 13 20 7 11 1011.6 1011.5 0.0
30/06:30pm 24.8 22.7 12.4 46 7.1 E 15 19 8 10 1011.1 1011.0 0.0
30/06:00pm 26.3 23.8 12.4 42 8.1 E 17 24 9 13 1010.8 1010.7 0.0
30/05:30pm 27.8 24.9 12.2 38 9.1 ESE 19 26 10 14 1010.4 1010.3 0.0
30/05:00pm 28.8 24.9 12.2 35 9.7 E 24 35 13 19 1010.0 1009.9 0.0
30/04:30pm 32.6 30.5 6.0 19 14.3 N 6 13 3 7 1010.0 1009.9 0.0
30/04:00pm 32.6 29.7 4.4 17 14.8 NW 9 20 5 11 1010.1 1010.0 0.0
30/03:30pm 31.5 28.5 4.3 18 14.1 ENE 9 17 5 9 1010.3 1010.2 0.0
30/03:00pm 30.5 26.9 2.7 17 14.0 N 11 19 6 10 1010.7 1010.6 0.0
30/02:30pm 30.4 27.2 4.9 20 13.3 NW 11 17 6 9 1011.4 1011.3 0.0
30/02:00pm 30.1 26.4 4.7 20 13.2 NNW 13 20 7 11 1011.9 1011.8 0.0
30/01:30pm 29.9 26.3 5.2 21 12.9 NNW 13 20 7 11 1012.1 1012.0 0.0
30/01:00pm 29.8 26.1 6.5 23 12.5 NNW 15 19 8 10 1012.6 1012.5 0.0
30/12:30pm 29.5 26.7 8.5 27 11.6 NNW 13 28 7 15 1013.1 1013.0 0.0
30/12:00pm 28.9 24.7 5.7 23 12.2 NNW 17 22 9 12 1013.4 1013.3 0.0
30/11:30am 27.1 23.9 8.5 31 10.1 N 15 26 8 14 1014.0 1013.9 0.0
30/11:00am 26.4 24.9 13.2 44 7.7 NNW 13 20 7 11 1014.5 1014.4 0.0
30/10:30am 24.1 21.9 12.1 47 6.8 NNW 15 24 8 13 1014.9 1014.8 0.0
30/10:00am 22.9 21.6 12.5 52 5.9 NNW 11 17 6 9 1015.4 1015.3 0.0
30/09:30am 21.8 20.6 12.9 57 5.1 NW 11 20 6 11 1015.5 1015.4 0.0
30/09:00am 20.1 18.8 12.6 62 4.2 NNW 11 19 6 10 1015.7 1015.6 0.0
30/08:30am 19.2 18.5 13.2 68 3.4 NW 9 15 5 8 1015.6 1015.5 0.0
30/08:00am 17.1 17.8 14.4 84 1.6 WSW 4 7 2 4 1015.6 1015.5 0.0
30/07:30am 14.9 15.4 14.1 95 0.5 NE 4 7 2 4 1015.5 1015.4 0.0
30/07:00am 12.0 12.6 12.0 100 0.0 CALM 0 0 0 0 1015.4 1015.3 0.0
30/06:30am 9.8 9.8 9.8 100 0.0 CALM 0 0 0 0 1015.1 1015.0 0.0
30/06:00am 9.1 8.9 9.1 100 0.0 CALM 0 0 0 0 1014.8 1014.7 0.0
30/05:30am 9.9 9.9 9.9 100 0.0 CALM 0 0 0 0 1014.7 1014.6 0.0
30/05:00am 9.8 9.8 9.8 100 0.0 CALM 0 0 0 0 1014.7 1014.6 0.0
30/04:30am 10.4 10.5 10.2 99 0.1 CALM 0 0 0 0 1014.7 1014.6 0.0
30/04:00am 10.7 10.9 10.5 99 0.1 CALM 0 0 0 0 1014.7 1014.6 0.0
30/03:30am 11.6 12.0 11.4 99 0.1 CALM 0 0 0 0 1014.6 1014.5 0.0
30/03:00am 11.6 12.0 11.1 97 0.3 CALM 0 0 0 0 1014.8 1014.7 0.0
30/02:30am 12.2 11.5 11.3 94 0.5 WSW 6 9 3 5 1014.8 1014.7 0.0
30/02:00am 13.2 12.6 11.8 91 0.7 SW 6 9 3 5 1014.8 1014.7 0.0
30/01:30am 13.6 12.7 10.6 82 1.6 WSW 6 7 3 4 1015.2 1015.1 0.0
30/01:00am 14.7 13.7 11.1 79 1.9 SSW 7 11 4 6 1015.4 1015.3 0.0
30/12:30am 15.4 14.3 12.0 80 1.9 SSW 9 13 5 7 1015.8 1015.7 0.0
30/12:00am 15.4 13.9 11.8 79 2.0 SSW 11 13 6 7 1015.9 1015.8 0.0
 
Date/Time
EDT
Temp
°C
App
Temp
°C
Dew
Point
Rel
Hum
%
Delta-T
°C
Wind Press
QNH
hPa
Press
MSL
hPa
Rain
since 9 am
mm
Dir
 
Spd
km/h
Gust
km/h
Spd
kts
Gust
kts
29/11:30pm 15.5 13.9 11.7 78 2.1 SSW 11 13 6 7 1016.0 1015.9 0.0
29/11:00pm 15.8 14.3 11.8 77 2.2 SSW 11 15 6 8 1016.0 1015.9 0.0
29/10:30pm 16.0 14.5 11.8 76 2.3 S 11 15 6 8 1015.9 1015.8 0.0
29/10:00pm 16.2 14.3 11.8 75 2.4 S 13 15 7 8 1016.0 1015.9 0.0
29/09:30pm 17.0 14.9 12.3 74 2.6 S 15 19 8 10 1016.0 1015.9 0.0
29/09:00pm 17.2 15.3 11.9 71 2.9 S 13 17 7 9 1015.8 1015.7 0.0
29/08:30pm 18.4 16.6 12.2 67 3.4 SSE 13 15 7 8 1015.4 1015.3 0.0
29/08:00pm 18.8 17.3 11.9 64 3.8 SE 11 17 6 9 1015.3 1015.2 0.0
29/07:30pm 19.5 17.1 11.5 60 4.4 ESE 15 19 8 10 1015.0 1014.9 0.0
29/07:00pm 20.4 16.7 11.6 57 4.9 E 22 28 12 15 1014.6 1014.5 0.0
29/06:30pm 21.4 18.0 10.6 50 5.9 ESE 19 26 10 14 1014.4 1014.3 0.0
29/06:00pm 22.4 17.9 10.2 46 6.7 E 24 32 13 17 1014.0 1013.9 0.0
29/05:30pm 22.8 18.4 10.3 45 6.9 E 24 32 13 17 1013.8 1013.7 0.0
29/05:00pm 23.9 19.4 10.2 42 7.6 E 24 35 13 19 1013.8 1013.7 0.0
29/04:30pm 24.8 20.4 9.1 37 8.5 E 22 32 12 17 1013.7 1013.6 0.0
29/04:00pm 25.8 21.6 8.3 33 9.4 ESE 20 28 11 15 1013.7 1013.6 0.0
29/03:30pm 25.9 20.9 6.5 29 10.1 ESE 22 30 12 16 1013.8 1013.7 0.0
29/03:00pm 26.3 21.4 6.9 29 10.2 E 22 30 12 16 1014.1 1014.0 0.0
29/02:30pm 26.8 23.8 4.0 23 11.5 SE 9 15 5 8 1014.5 1014.4 0.0
29/02:00pm 26.7 23.9 3.2 22 11.6 E 7 20 4 11 1014.9 1014.8 0.0
29/01:30pm 25.9 22.5 3.8 24 11.0 NE 11 19 6 10 1015.3 1015.2 0.0
29/01:00pm 25.6 23.0 4.1 25 10.7 NE 7 17 4 9 1015.5 1015.4 0.0
29/12:30pm 25.0 21.5 3.6 25 10.5 E 11 19 6 10 1015.8 1015.7 0.0
29/12:00pm 24.8 21.7 3.5 25 10.5 W 9 17 5 9 1016.1 1016.0 0.0

Other Formats:

Comma delimited format used in spreadsheet applications
http://www.bom.gov.au/fwo/IDN60801/IDN60801.95771.axf

JavaScript Object Notation format (JSON) in row-major order
http://www.bom.gov.au/fwo/IDN60801/IDN60801.95771.json